createdAt,value
2023-02-11T00:02:09.109Z,9.18
2023-02-11T00:07:12.855Z,9.23
2023-02-11T00:12:19.503Z,8.77
2023-02-11T00:17:22.287Z,9.98
2023-02-11T00:22:24.980Z,10.15
2023-02-11T00:27:29.065Z,9.38
2023-02-11T00:32:31.754Z,9.40
2023-02-11T00:37:36.368Z,9.43
2023-02-11T00:42:40.692Z,9.57
2023-02-11T00:47:43.328Z,8.98
2023-02-11T00:52:45.969Z,9.52
2023-02-11T00:57:50.160Z,9.15
2023-02-11T01:02:52.890Z,8.65
2023-02-11T01:07:55.600Z,8.88
2023-02-11T01:12:59.907Z,9.07
2023-02-11T01:18:02.573Z,9.18
2023-02-11T01:23:05.311Z,9.25
2023-02-11T01:28:16.073Z,8.85
2023-02-11T01:33:18.896Z,8.57
2023-02-11T01:38:23.135Z,8.23
2023-02-11T01:43:29.915Z,8.45
2023-02-11T01:48:36.854Z,8.35
2023-02-11T01:53:57.358Z,7.80
2023-02-11T01:59:05.942Z,8.38
2023-02-11T02:04:09.214Z,7.57
2023-02-11T02:09:17.644Z,8.50
2023-02-11T02:14:22.241Z,8.23
2023-02-11T02:19:51.120Z,8.35
2023-02-11T02:25:19.628Z,7.60
2023-02-11T02:30:52.948Z,7.68
2023-02-11T02:36:07.118Z,7.40
2023-02-11T02:41:11.714Z,7.35
2023-02-11T02:46:16.300Z,7.88
2023-02-11T02:51:31.882Z,7.68
2023-02-11T02:56:38.796Z,7.50
2023-02-11T03:01:51.126Z,7.00
2023-02-11T03:06:58.961Z,7.60
2023-02-11T03:12:03.205Z,7.72
2023-02-11T03:17:07.219Z,7.30
2023-02-11T03:22:14.516Z,7.28
2023-02-11T03:27:21.783Z,7.25
2023-02-11T03:32:27.929Z,6.93
2023-02-11T03:37:33.672Z,7.00
2023-02-11T03:42:38.444Z,7.30
2023-02-11T03:47:44.627Z,7.13
2023-02-11T03:52:50.401Z,7.10
2023-02-11T03:57:53.194Z,7.25
2023-02-11T04:02:55.892Z,7.25
2023-02-11T04:08:00.027Z,6.63
2023-02-11T04:13:02.652Z,6.50
2023-02-11T04:18:05.510Z,7.68
2023-02-11T04:23:10.107Z,6.72
2023-02-11T04:28:12.735Z,6.82
2023-02-11T04:33:15.360Z,6.30
2023-02-11T04:38:19.340Z,7.15
2023-02-11T04:43:21.970Z,7.10
2023-02-11T04:48:24.662Z,6.75
2023-02-11T04:53:28.699Z,6.80
2023-02-11T04:58:31.456Z,6.40
2023-02-11T05:03:34.070Z,5.97
2023-02-11T05:08:38.070Z,6.15
2023-02-11T05:13:40.747Z,6.18
2023-02-11T05:18:44.366Z,6.00
2023-02-11T05:23:48.679Z,5.97
2023-02-11T05:28:51.388Z,6.22
2023-02-11T05:33:54.089Z,6.03
2023-02-11T05:38:58.129Z,6.70
2023-02-11T05:44:00.850Z,6.30
2023-02-11T05:49:03.946Z,5.85
2023-02-11T05:54:08.044Z,5.90
2023-02-11T05:59:10.803Z,5.40
2023-02-11T06:04:13.659Z,5.60
2023-02-11T06:09:17.650Z,5.95
2023-02-11T06:14:20.894Z,6.25
2023-02-11T06:19:23.590Z,5.63
2023-02-11T06:24:48.073Z,5.63
2023-02-11T06:29:52.335Z,5.47
2023-02-11T06:34:55.048Z,5.57
2023-02-11T06:39:59.036Z,5.55
2023-02-11T06:45:01.690Z,5.90
2023-02-11T06:50:04.659Z,5.38
2023-02-11T06:55:09.228Z,5.82
2023-02-11T07:00:13.447Z,5.00
2023-02-11T07:05:16.127Z,5.57
2023-02-11T07:10:20.361Z,5.10
2023-02-11T07:15:22.957Z,5.10
2023-02-11T07:20:26.327Z,5.35
2023-02-11T07:25:30.340Z,5.15
2023-02-11T07:30:33.056Z,5.07
2023-02-11T07:35:35.722Z,5.05
2023-02-11T07:40:39.715Z,4.88
2023-02-11T07:45:42.368Z,5.15
2023-02-11T07:50:45.007Z,5.60
2023-02-11T07:55:49.386Z,5.68
2023-02-11T08:00:52.523Z,5.10
2023-02-11T08:05:55.179Z,4.80
2023-02-11T08:10:59.198Z,4.70
2023-02-11T08:16:01.958Z,4.97
2023-02-11T08:21:05.892Z,5.60
2023-02-11T08:26:11.851Z,5.40
2023-02-11T08:31:16.598Z,5.07
2023-02-11T08:36:21.487Z,4.85
2023-02-11T08:41:25.538Z,4.95
2023-02-11T08:46:28.236Z,4.60
2023-02-11T08:51:31.509Z,4.90
2023-02-11T08:56:35.703Z,5.35
2023-02-11T09:01:38.389Z,5.18
2023-02-11T09:06:41.596Z,4.97
2023-02-11T09:11:46.688Z,5.30
2023-02-11T09:16:49.852Z,4.82
2023-02-11T09:21:52.535Z,5.32
2023-02-11T09:26:56.598Z,4.70
2023-02-11T09:31:59.289Z,5.10
2023-02-11T09:37:02.600Z,5.10
2023-02-11T09:42:35.728Z,5.20
2023-02-11T09:47:47.134Z,5.00
2023-02-11T09:52:55.413Z,4.93
2023-02-11T09:58:43.773Z,5.40
2023-02-11T10:04:44.523Z,5.65
2023-02-11T10:10:08.559Z,5.32
2023-02-11T10:40:45.613Z,5.97
2023-02-11T10:45:50.355Z,6.60
2023-02-11T10:51:08.725Z,243.23
2023-02-11T10:56:29.597Z,212.07
2023-02-11T11:01:41.759Z,165.93
2023-02-11T11:13:25.521Z,128.70
2023-02-11T11:18:28.333Z,116.35
2023-02-11T11:29:04.041Z,104.22
2023-02-11T11:34:20.253Z,99.18
2023-02-11T11:39:25.289Z,92.78
2023-02-11T11:44:31.933Z,90.90
2023-02-11T11:49:37.667Z,86.45
2023-02-11T11:54:41.350Z,84.47
2023-02-11T11:59:45.699Z,77.70
2023-02-11T12:05:00.178Z,75.57
2023-02-11T12:10:22.289Z,73.18
2023-02-11T12:15:33.675Z,71.30
2023-02-11T12:20:41.412Z,64.75
2023-02-11T12:25:49.868Z,63.85
2023-02-11T12:31:06.303Z,60.35
2023-02-11T12:36:14.299Z,60.83
2023-02-11T12:41:42.307Z,58.22
2023-02-11T12:46:50.949Z,57.35
2023-02-11T12:52:04.287Z,54.55
2023-02-11T12:57:11.155Z,53.47
2023-02-11T13:02:22.142Z,52.65
2023-02-11T13:07:29.292Z,51.78
2023-02-11T13:12:50.973Z,49.63
2023-02-11T13:18:01.008Z,49.03
2023-02-11T13:23:10.125Z,47.95
2023-02-11T13:28:32.531Z,46.13
2023-02-11T13:33:39.496Z,46.58
2023-02-11T13:38:42.460Z,44.78
2023-02-11T13:43:45.481Z,44.65
2023-02-11T13:48:52.584Z,43.42
2023-02-11T13:53:57.531Z,42.65
2023-02-11T13:59:02.302Z,42.70
2023-02-11T14:04:40.304Z,42.38
2023-02-11T14:09:43.116Z,41.17
2023-02-11T14:15:18.476Z,39.10
2023-02-11T14:20:43.988Z,39.63
2023-02-11T14:25:54.915Z,36.70
2023-02-11T14:31:03.813Z,37.67
2023-02-11T14:36:16.820Z,36.78
2023-02-11T14:41:23.084Z,37.38
2023-02-11T14:46:32.728Z,34.55
2023-02-11T14:51:39.815Z,34.72
2023-02-11T14:56:44.420Z,34.22
2023-02-11T15:01:49.503Z,33.45
2023-02-11T15:06:54.518Z,34.25
2023-02-11T15:11:57.660Z,33.30
2023-02-11T15:17:09.552Z,31.92
2023-02-11T15:22:21.269Z,31.42
2023-02-11T15:27:28.821Z,30.23
2023-02-11T15:32:31.523Z,29.83
2023-02-11T15:37:38.137Z,30.67
2023-02-11T15:42:52.520Z,29.08
2023-02-11T15:47:58.878Z,28.50
2023-02-11T15:53:07.039Z,28.80
2023-02-11T15:58:10.149Z,28.70
2023-02-11T16:03:21.006Z,27.45
2023-02-11T16:08:26.913Z,26.60
2023-02-11T16:13:55.305Z,26.63
2023-02-11T16:19:04.860Z,26.70
2023-02-11T16:24:19.923Z,26.60
2023-02-11T16:29:26.265Z,25.35
2023-02-11T16:34:29.047Z,25.75
2023-02-11T16:39:33.367Z,25.73
2023-02-11T16:44:36.641Z,24.77
2023-02-11T16:49:42.550Z,24.65
2023-02-11T16:54:46.689Z,24.02
2023-02-11T16:59:49.750Z,23.85
2023-02-11T17:04:53.480Z,23.13
2023-02-11T17:09:57.722Z,22.17
2023-02-11T17:15:00.389Z,22.25
2023-02-11T17:20:03.137Z,21.55
2023-02-11T17:25:07.495Z,21.60
2023-02-11T17:30:11.596Z,22.58
2023-02-11T17:35:14.321Z,20.65
2023-02-11T17:40:18.668Z,21.40
2023-02-11T17:45:22.459Z,21.13
2023-02-11T17:50:27.594Z,20.10
2023-02-11T17:55:43.031Z,19.52
2023-02-11T18:00:46.306Z,19.83
2023-02-11T18:05:49.208Z,19.33
2023-02-11T18:10:53.455Z,18.75
2023-02-11T18:15:56.506Z,18.88
2023-02-11T18:20:59.936Z,18.40
2023-02-11T18:26:04.165Z,18.35
2023-02-11T18:31:08.503Z,17.95
2023-02-11T18:36:21.373Z,17.88
2023-02-11T18:41:25.451Z,17.15
2023-02-11T18:46:28.630Z,16.98
2023-02-11T18:51:32.444Z,17.55
2023-02-11T18:56:36.944Z,16.35
2023-02-11T19:01:43.172Z,16.65
2023-02-11T19:06:48.481Z,16.17
2023-02-11T19:11:54.038Z,15.77
2023-02-11T19:16:58.030Z,16.42
2023-02-11T19:22:02.255Z,16.17
2023-02-11T19:27:06.555Z,15.77
2023-02-11T19:32:09.391Z,15.55
2023-02-11T19:37:13.162Z,14.90
2023-02-11T19:42:17.216Z,15.30
2023-02-11T19:47:26.648Z,14.82
2023-02-11T19:52:29.305Z,15.07
2023-02-11T19:57:33.395Z,14.07
2023-02-11T20:02:38.480Z,14.15
2023-02-11T20:07:41.256Z,13.60
2023-02-11T20:12:45.261Z,14.05
2023-02-11T20:17:48.017Z,13.38
2023-02-11T20:22:52.322Z,13.57
2023-02-11T20:27:56.441Z,14.68
2023-02-11T20:32:59.434Z,12.20
2023-02-11T20:38:02.910Z,13.70
2023-02-11T20:43:06.946Z,13.30
2023-02-11T20:48:44.626Z,11.82
2023-02-11T20:53:49.889Z,12.80
2023-02-11T20:58:54.123Z,12.35
2023-02-11T21:03:58.117Z,13.40
2023-02-11T21:09:00.838Z,12.52
2023-02-11T21:14:04.933Z,12.63
2023-02-11T21:19:07.891Z,12.25
2023-02-11T21:24:19.616Z,12.43
2023-02-11T21:29:23.637Z,11.93
2023-02-11T21:34:26.320Z,11.70
2023-02-11T21:39:29.110Z,11.75
2023-02-11T21:44:33.093Z,11.50
2023-02-11T21:49:35.747Z,11.32
2023-02-11T21:54:38.438Z,11.77
2023-02-11T21:59:42.753Z,11.73
2023-02-11T22:04:45.436Z,10.50
2023-02-11T22:09:48.797Z,10.63
2023-02-11T22:14:52.731Z,11.23
2023-02-11T22:19:56.654Z,10.18
2023-02-11T22:24:59.992Z,12.85
2023-02-11T22:30:04.708Z,10.40
2023-02-11T22:35:07.716Z,10.32
2023-02-11T22:40:11.293Z,10.57
2023-02-11T22:45:21.549Z,10.27
2023-02-11T22:50:24.220Z,9.80
2023-02-11T22:55:27.484Z,9.90
2023-02-11T23:00:32.560Z,9.85
2023-02-11T23:05:38.918Z,9.65
2023-02-11T23:10:41.652Z,10.13
2023-02-11T23:15:46.725Z,10.25
2023-02-11T23:20:49.472Z,9.77
2023-02-11T23:25:52.142Z,9.25
2023-02-11T23:30:56.300Z,9.35
2023-02-11T23:35:58.971Z,10.48
2023-02-11T23:41:01.642Z,9.25
2023-02-11T23:46:06.482Z,8.80
2023-02-11T23:51:10.156Z,9.73
2023-02-11T23:56:15.794Z,8.93
